Etusivu
METAR-TAF:

METAR-TAF

Lentoasemat :

Akulivik, Quebec, Kanada

Leveyspiiri: 60-49N, Pituuspiiri: 078-09W, korkeus merenpinnasta: 20 m

Tämänhetkinen sää

Tämä raportti tehtiin 2 tuntia ja 10 minuuttia sitten, kello 21.00 UTC
tyyntä
Lämpötila -23°C
Kosteus 84%
Ilmanpaine 1021 hPa
Näkyvyys: 16.1 km
Muutamia pilviä 2000 ft:n korkeudessa

METAR: CYKO 282100Z 00000KT 10SM FEW020 M23/M25 A3015 RMK SC1 SC TR SLP215

Aika: 18:10 (23:10 UTC)


TAF: puuttuu

Säähavainnot ja -ennusteet yli 4000 lentoasemalta (METAR- ja TAF-raportit).

Käytössä olevat sääasemat on merkitty karttaan keltaisilla ja punaisilla pisteillä.

Aseta hiiri pisteen päälle nähdäksesi sääaseman nimen.

Klikkaa sitten nähdäksesi säähavainnot ja -ennusteet.

Kartan vaihtaminen: klikkaa mustalla rastilla varustettuja vihreitä pisteitä, niin voit zoomata sisään; viivalla varustettua vihreää pistettä, niin voit zoomata ulos tai vihreitä nuolia, niin pääset viereisille kartoille.


METAR-TAF: